Fort Osage, Missouri
Current Conditions -  °F | °C
As of 1:35 PM on Friday 28 Nov 2014 (Local Time) from KGPH Reporting Station
Clear Clear  
Wind Chill: 55°   Ceiling: Unl
Heat Index: 55°   Visibility: 10mi
Dew Point: 32°   Wind: 13mph
Humidity: 41%   Direction: 200°SSW
Pressure: 29.86"   Gusts: NA
Location:  39.1591°N, 94.1879°W
Report Text: KGPH 281935Z AUTO 20011KT 10SM CLR 13/00 A2986 RMK AO2
Loading
Personal Weather Stations






























Interactive Weather Map New forecast layout! Learn more

10-Day Weather Forecast

Advertisements
Track Severe Weather on mobile